Aérodrome :
LOGIN :

S'inscrire | Disclaimer

   EN    FR    IT 

 










Légende :    VFR   VFR Marginal   IFR   IFR Intensif   IFR Très Intensif
Visi : 
Plafond : 
>= 8 km
>= 3000ft
5 à 8 km
1000 à 3000 ft
1500m à 5 km
500 à 1000 ft
800 à 1500m
200 à 500 ft
< 800m
< 200 ft
Symboles :   Orages  Brouillard  Fortes neiges  Fortes précipitations  Vent > 20 kt
SIGMETs :   Divers  Orages  Givrage  Turbulence  Onde Orograph.  Cendres Volcan.







- Altitude de l'aérodrome : 1768 ft


LEHC - Huesca Pirineos

DERNIER METAR :
  • 210430Z AUTO 26017KT 9999 NCD 11/08 Q1021

METARs EXPIRÉS :
  • 210400Z AUTO 28023G33KT 9999 NCD 12/08 Q1020
  • 210330Z AUTO 28022G32KT 9999 NCD 12/08 Q1020
  • 210300Z AUTO 27020G31KT 9999 NCD 12/08 Q1021
  • 210230Z AUTO 27020KT 9999 NCD 12/08 Q1021
  • 210200Z AUTO 27020KT 240V310 9999 NCD 12/08 Q1020

TAF TAF LEHC
Valide du 21 à 03h jusqu'au 22 à 03h UTC


210200Z 2103/2203 28018KT 9999 FEW030 TX16/2113Z TN09/2107Z
TEMPO 2103/2124 28020G30KT
Pas de NOTAMs connus pour ce terrain.



MET'MAP, la Météo Aéronautique d'un coup d'oeil ! - Copyright ORBIFLY Décembre 2007 - Disclaimer

ORBIFLY MET'MAP TEAM :

Programmation & Développement : Alexandra Zaïnal
Conception & Développement : Baudouin d'Aumeries
Co-Programmation & Développement : Marc-Olivier Méhu
Soutien technique & logistique : Manuel Goepfert

Contact : metmap@orbifly.com




SOURCES & CREDITS :

   NOAA